Weather at Aviosuperficie Blue Silo

Public forecast

Using degrees Celsius for public forecast. Weather courtesy of forecast.io.

Closest aviation weather report (METAR) to Aviosuperficie Blue Silo

Closest report is Aviano Air Base, 8.8 nm (16.3 km) N.

2024/07/17 18:55 (retrieved 29 minutes ago)

LIPA 171855Z 35004KT 9999 FEW050 28/22 Q1014 RMK SCT VIS MIN 9999 WIND THR05 /////KT WIND THR23 /////KT A2996 BLU

Closest aviation forecast (TAF) to Aviosuperficie Blue Silo

Closest forecast is Treviso Antonio Canova Airport, 23.1 nm (42.8 km) SW.

2024/07/17 18:21 (retrieved 1 hour ago)

TAF LIPH 171700Z 1718/1818 03006KT 9999 FEW060